createdAt,value
2018-04-22T00:01:47.700Z,48.30
2018-04-22T00:04:15.811Z,48.20
2018-04-22T00:06:43.899Z,48.90
2018-04-22T00:09:12.020Z,48.30
2018-04-22T00:11:40.123Z,48.30
2018-04-22T00:14:08.984Z,48.40
2018-04-22T00:16:37.096Z,48.40
2018-04-22T00:19:05.273Z,48.40
2018-04-22T00:21:33.382Z,48.30
2018-04-22T00:24:01.483Z,48.50
2018-04-22T00:26:29.627Z,48.30
2018-04-22T00:28:57.755Z,48.30
2018-04-22T00:31:25.863Z,48.30
2018-04-22T00:33:54.727Z,48.10
2018-04-22T00:36:22.841Z,48.10
2018-04-22T00:38:50.951Z,48.10
2018-04-22T00:41:19.109Z,48.20
2018-04-22T00:43:47.240Z,48.80
2018-04-22T00:46:15.603Z,48.30
2018-04-22T00:48:43.714Z,48.30
2018-04-22T00:51:12.610Z,48.50
2018-04-22T00:53:53.456Z,48.50
2018-04-22T00:56:21.560Z,48.50
2018-04-22T00:58:50.429Z,48.70
2018-04-22T01:01:18.548Z,48.70
2018-04-22T01:03:46.656Z,48.90
2018-04-22T01:06:14.760Z,49.00
2018-04-22T01:08:42.859Z,49.10
2018-04-22T01:11:11.736Z,49.30
2018-04-22T01:13:39.832Z,49.20
2018-04-22T01:16:08.703Z,49.40
2018-04-22T01:18:36.824Z,49.40
2018-04-22T01:21:04.944Z,49.60
2018-04-22T01:23:33.043Z,49.60
2018-04-22T01:26:01.148Z,49.70
2018-04-22T01:28:29.443Z,49.60
2018-04-22T01:30:57.630Z,50.20
2018-04-22T01:33:26.292Z,49.70
2018-04-22T01:35:55.153Z,49.90
2018-04-22T01:38:23.253Z,49.80
2018-04-22T01:40:52.135Z,49.80
2018-04-22T01:43:20.255Z,49.80
2018-04-22T01:45:48.356Z,49.80
2018-04-22T01:48:16.472Z,49.70
2018-04-22T01:50:45.364Z,49.70
2018-04-22T01:53:13.472Z,49.70
2018-04-22T01:55:41.628Z,49.60
2018-04-22T01:58:09.721Z,49.70
2018-04-22T02:00:37.801Z,49.70
2018-04-22T02:03:05.982Z,49.50
2018-04-22T02:05:34.093Z,49.60
2018-04-22T02:08:02.213Z,49.70
2018-04-22T02:10:31.092Z,49.70
2018-04-22T02:13:00.004Z,49.70
2018-04-22T02:15:28.147Z,49.70
2018-04-22T02:17:56.263Z,49.70
2018-04-22T02:20:25.161Z,49.70
2018-04-22T02:22:53.261Z,49.60
2018-04-22T02:25:21.373Z,49.60
2018-04-22T02:27:49.483Z,49.70
2018-04-22T02:30:17.615Z,49.60
2018-04-22T02:32:45.721Z,49.40
2018-04-22T02:35:14.652Z,49.50
2018-04-22T02:37:42.769Z,49.50
2018-04-22T02:40:10.858Z,49.70
2018-04-22T02:42:38.987Z,49.60
2018-04-22T02:45:07.129Z,50.10
2018-04-22T02:47:36.001Z,49.30
2018-04-22T02:50:04.108Z,49.30
2018-04-22T02:52:32.994Z,49.80
2018-04-22T02:55:01.883Z,49.10
2018-04-22T02:57:30.765Z,49.10
2018-04-22T02:59:59.631Z,49.10
2018-04-22T03:02:27.736Z,49.10
2018-04-22T03:04:55.843Z,49.00
2018-04-22T03:07:23.975Z,49.00
2018-04-22T03:09:52.088Z,49.00
2018-04-22T03:12:20.987Z,49.00
2018-04-22T03:14:49.098Z,49.00
2018-04-22T03:17:17.212Z,49.00
2018-04-22T03:19:45.301Z,49.00
2018-04-22T03:22:14.277Z,48.90
2018-04-22T03:24:43.120Z,49.00
2018-04-22T03:27:11.232Z,48.90
2018-04-22T03:29:39.341Z,49.00
2018-04-22T03:32:08.220Z,49.70
2018-04-22T03:34:36.311Z,49.10
2018-04-22T03:37:05.201Z,49.00
2018-04-22T03:39:33.314Z,48.90
2018-04-22T03:42:01.452Z,49.00
2018-04-22T03:44:29.552Z,48.90
2018-04-22T03:46:58.419Z,49.50
2018-04-22T03:49:26.544Z,49.40
2018-04-22T03:51:54.647Z,49.20
2018-04-22T03:54:23.499Z,50.00
2018-04-22T03:56:51.612Z,49.40
2018-04-22T03:59:19.699Z,49.50
2018-04-22T04:01:48.568Z,49.40
2018-04-22T04:04:16.696Z,49.40
2018-04-22T04:06:44.805Z,49.60
2018-04-22T04:09:12.899Z,49.80
2018-04-22T04:11:41.019Z,50.00
2018-04-22T04:14:09.144Z,50.10
2018-04-22T04:16:37.234Z,49.80
2018-04-22T04:19:17.458Z,49.80
2018-04-22T04:21:57.252Z,50.00
2018-04-22T04:24:37.938Z,50.00
2018-04-22T04:27:19.632Z,50.20
2018-04-22T04:29:47.759Z,50.10
2018-04-22T04:32:15.852Z,50.00
2018-04-22T04:34:43.963Z,50.30
2018-04-22T04:37:12.836Z,50.90
2018-04-22T04:39:40.943Z,50.90
2018-04-22T04:42:09.809Z,51.10
2018-04-22T04:44:37.939Z,51.10
2018-04-22T04:47:06.075Z,51.20
2018-04-22T04:49:34.170Z,51.50
2018-04-22T04:52:03.042Z,51.40
2018-04-22T04:54:31.148Z,51.40
2018-04-22T04:57:00.047Z,51.90
2018-04-22T04:59:28.913Z,52.10
2018-04-22T05:01:57.163Z,52.00
2018-04-22T05:04:25.259Z,52.50
2018-04-22T05:06:53.373Z,52.60
2018-04-22T05:09:21.467Z,52.90
2018-04-22T05:11:49.582Z,53.20
2018-04-22T05:14:17.679Z,53.10
2018-04-22T05:16:46.539Z,53.20
2018-04-22T05:19:14.636Z,53.10
2018-04-22T05:21:42.751Z,53.00
2018-04-22T05:24:10.847Z,52.80
2018-04-22T05:26:38.949Z,52.50
2018-04-22T05:29:07.042Z,52.30
2018-04-22T05:31:35.155Z,52.20
2018-04-22T05:34:03.284Z,52.00
2018-04-22T05:36:31.409Z,51.80
2018-04-22T05:38:59.508Z,51.90
2018-04-22T05:41:27.612Z,51.80
2018-04-22T05:43:55.727Z,51.60
2018-04-22T05:46:24.606Z,51.40
2018-04-22T05:48:52.724Z,51.40
2018-04-22T05:51:20.823Z,52.00
2018-04-22T05:53:48.937Z,51.50
2018-04-22T05:56:17.032Z,51.40
2018-04-22T05:58:45.155Z,52.20
2018-04-22T06:01:13.254Z,51.30
2018-04-22T06:03:41.353Z,51.30
2018-04-22T06:06:10.220Z,51.10
2018-04-22T06:08:38.362Z,51.10
2018-04-22T06:11:07.205Z,50.90
2018-04-22T06:13:35.316Z,50.80
2018-04-22T06:16:03.487Z,50.60
2018-04-22T06:18:32.457Z,50.00
2018-04-22T06:21:00.556Z,49.90
2018-04-22T06:23:28.664Z,49.60
2018-04-22T06:25:56.777Z,49.30
2018-04-22T06:28:24.885Z,49.00
2018-04-22T06:30:53.855Z,48.60
2018-04-22T06:33:21.968Z,48.60
2018-04-22T06:35:50.080Z,48.50
2018-04-22T06:38:18.187Z,48.40
2018-04-22T06:40:46.304Z,48.40
2018-04-22T06:43:14.456Z,48.40
2018-04-22T06:45:43.344Z,49.00
2018-04-22T06:48:11.523Z,48.40
2018-04-22T06:50:39.713Z,49.20
2018-04-22T06:53:07.857Z,48.60
2018-04-22T06:55:36.030Z,48.70
2018-04-22T06:58:04.181Z,48.80
2018-04-22T07:00:32.283Z,48.80
2018-04-22T07:03:00.397Z,48.90
2018-04-22T07:05:29.330Z,49.00
2018-04-22T07:07:57.376Z,49.00
2018-04-22T07:10:25.655Z,49.00
2018-04-22T07:12:53.836Z,49.00
2018-04-22T07:15:22.036Z,49.00
2018-04-22T07:17:50.968Z,49.10
2018-04-22T07:20:19.176Z,49.10
2018-04-22T07:22:47.369Z,49.30
2018-04-22T07:25:16.352Z,49.60
2018-04-22T07:27:44.434Z,49.60
2018-04-22T07:30:13.380Z,49.40
2018-04-22T07:32:41.517Z,49.30
2018-04-22T07:35:09.633Z,49.30
2018-04-22T07:37:37.735Z,49.20
2018-04-22T07:40:05.849Z,49.10
2018-04-22T07:42:34.782Z,49.00
2018-04-22T07:45:02.969Z,49.00
2018-04-22T07:47:31.092Z,49.00
2018-04-22T07:49:59.248Z,49.00
2018-04-22T07:52:27.448Z,48.90
2018-04-22T07:57:57.653Z,48.50
2018-04-22T08:00:25.804Z,48.30
2018-04-22T08:02:54.023Z,48.50
2018-04-22T08:05:22.335Z,48.30
2018-04-22T08:07:50.452Z,48.20
2018-04-22T08:10:18.564Z,47.80
2018-04-22T08:12:47.472Z,47.70
2018-04-22T08:15:15.606Z,48.30
2018-04-22T08:17:43.715Z,47.80
2018-04-22T08:20:12.650Z,47.60
2018-04-22T08:22:41.564Z,47.60
2018-04-22T08:25:09.703Z,47.70
2018-04-22T08:27:37.825Z,47.30
2018-04-22T08:30:05.939Z,47.30
2018-04-22T08:32:34.839Z,46.50
2018-04-22T08:35:03.801Z,45.80
2018-04-22T08:37:31.904Z,45.70
2018-04-22T08:40:00.764Z,46.20
2018-04-22T08:42:28.907Z,45.50
2018-04-22T08:44:57.043Z,44.90
2018-04-22T08:47:26.279Z,43.40
2018-04-22T08:49:54.543Z,43.80
2018-04-22T08:52:22.653Z,43.60
2018-04-22T08:54:51.340Z,43.40
2018-04-22T08:57:19.448Z,43.10
2018-04-22T08:59:47.557Z,42.40
2018-04-22T09:02:16.436Z,41.60
2018-04-22T09:04:45.330Z,42.10
2018-04-22T09:07:13.471Z,42.10
2018-04-22T09:09:41.861Z,42.10
2018-04-22T09:12:09.991Z,41.80
2018-04-22T09:14:38.854Z,41.40
2018-04-22T09:17:07.005Z,41.40
2018-04-22T09:19:35.139Z,41.40
2018-04-22T09:22:03.266Z,40.50
2018-04-22T09:24:31.446Z,40.00
2018-04-22T09:26:59.659Z,40.30
2018-04-22T09:29:27.764Z,40.00
2018-04-22T09:31:55.866Z,40.40
2018-04-22T09:34:23.997Z,40.40
2018-04-22T09:36:52.262Z,40.30
2018-04-22T09:39:20.415Z,40.40
2018-04-22T09:41:48.556Z,39.70
2018-04-22T09:44:16.698Z,38.70
2018-04-22T09:46:44.807Z,38.00
2018-04-22T09:49:12.916Z,38.20
2018-04-22T09:51:41.088Z,38.60
2018-04-22T09:54:10.062Z,38.90
2018-04-22T09:56:38.212Z,39.00
2018-04-22T09:59:07.190Z,38.80
2018-04-22T10:01:37.132Z,38.80
2018-04-22T10:04:10.204Z,38.80
2018-04-22T10:06:38.408Z,38.50
2018-04-22T10:09:06.557Z,37.80
2018-04-22T10:11:36.359Z,38.10
2018-04-22T10:14:04.487Z,37.50
2018-04-22T10:16:32.646Z,37.10
2018-04-22T10:19:00.699Z,36.90
2018-04-22T10:21:28.812Z,36.00
2018-04-22T10:23:57.832Z,36.00
2018-04-22T10:26:25.952Z,36.40
2018-04-22T10:28:54.160Z,36.40
2018-04-22T10:31:22.297Z,36.20
2018-04-22T10:33:50.440Z,36.60
2018-04-22T10:36:18.608Z,35.90
2018-04-22T10:38:46.706Z,36.60
2018-04-22T10:41:14.831Z,37.10
2018-04-22T10:43:42.939Z,36.60
2018-04-22T10:46:11.892Z,37.30
2018-04-22T10:48:40.000Z,37.30
2018-04-22T10:51:08.236Z,37.70
2018-04-22T10:53:36.959Z,37.60
2018-04-22T10:56:05.118Z,37.70
2018-04-22T10:58:33.276Z,38.10
2018-04-22T11:01:01.371Z,37.60
2018-04-22T11:03:29.535Z,36.50
2018-04-22T11:05:57.664Z,37.80
2018-04-22T11:08:26.643Z,38.80
2018-04-22T11:10:55.504Z,37.50
2018-04-22T11:13:23.623Z,37.40
2018-04-22T11:15:51.777Z,37.20
2018-04-22T11:18:22.079Z,37.60
2018-04-22T11:20:51.023Z,37.60
2018-04-22T11:23:19.275Z,37.30
2018-04-22T11:25:48.148Z,36.30
2018-04-22T11:28:16.378Z,36.30
2018-04-22T11:30:44.540Z,36.40
2018-04-22T11:33:12.688Z,36.20
2018-04-22T11:35:40.821Z,35.10
2018-04-22T11:38:08.986Z,36.50
2018-04-22T11:40:37.194Z,36.40
2018-04-22T11:43:05.321Z,37.40
2018-04-22T11:45:34.203Z,36.60
2018-04-22T11:48:02.338Z,36.50
2018-04-22T11:50:30.942Z,37.80
2018-04-22T11:53:15.294Z,36.80
2018-04-22T11:55:43.425Z,36.10
2018-04-22T11:58:11.629Z,36.60
2018-04-22T12:00:42.586Z,36.20
2018-04-22T12:03:11.837Z,35.90
2018-04-22T12:05:40.841Z,35.60
2018-04-22T12:08:09.028Z,35.40
2018-04-22T12:10:37.312Z,35.30
2018-04-22T12:13:06.199Z,36.60
2018-04-22T12:15:34.364Z,36.60
2018-04-22T12:18:03.280Z,37.40
2018-04-22T12:20:31.414Z,37.40
2018-04-22T12:22:59.583Z,37.50
2018-04-22T12:25:31.389Z,36.30
2018-04-22T12:27:59.656Z,36.30
2018-04-22T12:30:27.831Z,37.30
2018-04-22T12:32:58.040Z,38.00
2018-04-22T12:35:27.460Z,37.10
2018-04-22T12:37:56.428Z,37.50
2018-04-22T12:40:24.566Z,37.50
2018-04-22T12:42:52.709Z,37.90
2018-04-22T12:45:21.589Z,38.00
2018-04-22T12:47:49.791Z,37.90
2018-04-22T12:50:19.324Z,37.40
2018-04-22T12:52:47.453Z,37.40
2018-04-22T12:55:16.392Z,37.30
2018-04-22T12:57:44.556Z,37.00
2018-04-22T13:00:12.735Z,36.70
2018-04-22T13:02:41.689Z,36.70
2018-04-22T13:05:10.268Z,36.60
2018-04-22T13:07:38.395Z,34.70
2018-04-22T13:10:06.541Z,35.20
2018-04-22T13:12:35.451Z,35.60
2018-04-22T13:15:03.585Z,35.60
2018-04-22T13:17:31.719Z,36.40
2018-04-22T13:19:59.903Z,36.60
2018-04-22T13:22:28.564Z,37.00
2018-04-22T13:24:56.694Z,37.10
2018-04-22T13:27:24.816Z,36.90
2018-04-22T13:29:53.066Z,35.00
2018-04-22T13:32:21.240Z,33.00
2018-04-22T13:34:55.073Z,34.30
2018-04-22T13:37:23.188Z,35.60
2018-04-22T13:39:51.312Z,35.80
2018-04-22T13:42:20.005Z,35.10
2018-04-22T13:44:48.137Z,34.10
2018-04-22T13:47:16.260Z,34.80
2018-04-22T13:49:44.380Z,35.60
2018-04-22T13:52:13.267Z,33.80
2018-04-22T13:54:41.448Z,33.80
2018-04-22T13:57:09.567Z,35.00
2018-04-22T13:59:37.808Z,35.10
2018-04-22T14:02:06.771Z,35.60
2018-04-22T14:04:35.224Z,35.60
2018-04-22T14:07:03.391Z,34.30
2018-04-22T14:09:31.499Z,34.40
2018-04-22T14:11:59.635Z,35.20
2018-04-22T14:14:27.780Z,35.50
2018-04-22T14:16:56.734Z,34.60
2018-04-22T14:19:24.833Z,34.50
2018-04-22T14:21:53.005Z,33.10
2018-04-22T14:24:21.135Z,33.50
2018-04-22T14:26:50.051Z,34.40
2018-04-22T14:29:18.205Z,34.30
2018-04-22T14:31:47.093Z,34.30
2018-04-22T14:34:15.188Z,34.30
2018-04-22T14:36:43.357Z,34.40
2018-04-22T14:39:11.545Z,33.80
2018-04-22T14:41:39.717Z,31.20
2018-04-22T14:44:19.667Z,31.20
2018-04-22T14:46:47.839Z,32.20
2018-04-22T14:49:15.945Z,32.90
2018-04-22T14:51:44.265Z,32.80
2018-04-22T14:54:12.600Z,30.90
2018-04-22T14:56:40.932Z,31.50
2018-04-22T14:59:09.736Z,32.60
2018-04-22T15:01:39.066Z,32.70
2018-04-22T15:04:07.232Z,32.60
2018-04-22T15:06:35.404Z,31.50
2018-04-22T15:09:03.590Z,32.60
2018-04-22T15:11:32.504Z,33.20
2018-04-22T15:14:00.651Z,33.20
2018-04-22T15:16:29.520Z,32.20
2018-04-22T15:18:57.727Z,32.20
2018-04-22T15:21:26.621Z,32.70
2018-04-22T15:23:55.503Z,31.60
2018-04-22T15:26:23.588Z,31.50
2018-04-22T15:28:52.473Z,32.20
2018-04-22T15:31:21.342Z,32.30
2018-04-22T15:33:49.459Z,32.30
2018-04-22T15:36:17.584Z,32.90
2018-04-22T15:38:45.709Z,33.50
2018-04-22T15:41:14.609Z,33.00
2018-04-22T15:43:43.477Z,32.80
2018-04-22T15:46:12.377Z,33.10
2018-04-22T15:48:40.479Z,33.00
2018-04-22T15:51:08.651Z,33.50
2018-04-22T15:53:37.596Z,34.60
2018-04-22T15:56:05.748Z,34.70
2018-04-22T15:58:33.911Z,34.60
2018-04-22T16:01:02.041Z,34.40
2018-04-22T16:03:30.262Z,34.30
2018-04-22T16:05:58.388Z,35.30
2018-04-22T16:08:26.575Z,35.50
2018-04-22T16:10:55.636Z,35.70
2018-04-22T16:13:23.795Z,36.20
2018-04-22T16:15:51.936Z,36.80
2018-04-22T16:18:20.666Z,37.40
2018-04-22T16:20:48.780Z,37.20
2018-04-22T16:23:17.787Z,37.80
2018-04-22T16:25:46.042Z,37.70
2018-04-22T16:28:14.492Z,36.90
2018-04-22T16:30:42.680Z,35.80
2018-04-22T16:33:11.642Z,36.10
2018-04-22T16:35:39.745Z,37.70
2018-04-22T16:38:09.008Z,40.60
2018-04-22T16:40:37.404Z,40.60
2018-04-22T16:43:05.660Z,41.60
2018-04-22T16:45:33.779Z,42.30
2018-04-22T16:48:02.201Z,42.70
2018-04-22T16:50:30.413Z,42.90
2018-04-22T16:52:59.202Z,43.30
2018-04-22T16:55:27.341Z,43.80
2018-04-22T16:57:55.632Z,44.10
2018-04-22T17:00:23.894Z,44.40
2018-04-22T17:02:52.044Z,44.60
2018-04-22T17:05:20.240Z,45.00
2018-04-22T17:07:49.344Z,45.60
2018-04-22T17:13:23.053Z,45.90
2018-04-22T17:15:51.618Z,46.10
2018-04-22T17:18:20.643Z,46.70
2018-04-22T17:20:49.001Z,46.60
2018-04-22T17:23:18.193Z,47.40
2018-04-22T17:25:46.460Z,47.40
2018-04-22T17:28:14.568Z,47.70
2018-04-22T17:30:43.607Z,47.80
2018-04-22T17:33:11.822Z,48.20
2018-04-22T17:35:39.948Z,48.70
2018-04-22T17:38:08.132Z,49.10
2018-04-22T17:40:36.232Z,49.30
2018-04-22T17:43:05.192Z,50.00
2018-04-22T17:45:33.313Z,49.90
2018-04-22T17:48:01.410Z,50.10
2018-04-22T17:50:29.612Z,50.30
2018-04-22T17:52:57.769Z,50.60
2018-04-22T17:55:25.960Z,50.60
2018-04-22T17:57:54.832Z,51.00
2018-04-22T18:00:22.979Z,51.00
2018-04-22T18:02:51.670Z,51.10
2018-04-22T18:05:19.947Z,51.30
2018-04-22T18:07:48.180Z,51.40
2018-04-22T18:10:16.455Z,51.60
2018-04-22T18:12:44.691Z,51.70
2018-04-22T18:15:12.832Z,51.80
2018-04-22T18:17:41.815Z,52.10
2018-04-22T18:20:10.745Z,52.20
2018-04-22T18:22:38.850Z,52.20
2018-04-22T18:25:08.841Z,52.30
2018-04-22T18:27:37.170Z,52.50
2018-04-22T18:30:07.068Z,52.40
2018-04-22T18:32:35.234Z,52.60
2018-04-22T18:35:03.734Z,52.70
2018-04-22T18:37:31.939Z,52.80
2018-04-22T18:40:00.212Z,53.00
2018-04-22T18:42:28.442Z,53.00
2018-04-22T18:44:56.914Z,53.10
2018-04-22T18:47:25.300Z,53.20
2018-04-22T18:49:53.790Z,53.20
2018-04-22T18:52:22.148Z,53.40
2018-04-22T18:54:51.163Z,53.40
2018-04-22T18:57:19.313Z,53.50
2018-04-22T18:59:47.514Z,53.50
2018-04-22T19:02:15.681Z,53.60
2018-04-22T19:04:43.828Z,53.80
2018-04-22T19:07:12.080Z,53.80
2018-04-22T19:09:40.201Z,53.90
2018-04-22T19:12:08.386Z,54.00
2018-04-22T19:14:36.589Z,54.10
2018-04-22T19:17:05.478Z,54.30
2018-04-22T19:19:34.185Z,54.30
2018-04-22T19:22:02.307Z,54.40
2018-04-22T19:24:30.538Z,54.50
2018-04-22T19:26:58.711Z,54.60
2018-04-22T19:29:26.947Z,54.90
2018-04-22T19:31:55.939Z,56.10
2018-04-22T19:34:24.013Z,55.50
2018-04-22T19:36:52.144Z,55.40
2018-04-22T19:39:20.330Z,56.00
2018-04-22T19:41:48.504Z,56.20
2018-04-22T19:44:16.665Z,56.00
2018-04-22T19:46:44.821Z,55.80
2018-04-22T19:49:13.179Z,55.70
2018-04-22T19:51:41.272Z,55.90
2018-04-22T19:54:10.176Z,56.00
2018-04-22T19:56:38.458Z,55.90
2018-04-22T19:59:07.363Z,56.40
2018-04-22T20:01:36.252Z,56.30
2018-04-22T20:04:05.149Z,56.30
2018-04-22T20:06:34.016Z,56.70
2018-04-22T20:09:02.189Z,56.70
2018-04-22T20:11:30.335Z,56.70
2018-04-22T20:13:59.339Z,56.60
2018-04-22T20:16:27.448Z,56.40
2018-04-22T20:18:55.622Z,57.40
2018-04-22T20:21:23.766Z,56.80
2018-04-22T20:23:51.963Z,56.80
2018-04-22T20:26:20.893Z,57.10
2018-04-22T20:28:49.080Z,57.10
2018-04-22T20:31:17.371Z,57.20
2018-04-22T20:33:47.775Z,57.70
2018-04-22T20:36:16.123Z,58.10
2018-04-22T20:38:45.096Z,59.70
2018-04-22T20:41:14.195Z,59.40
2018-04-22T20:43:42.368Z,59.30
2018-04-22T20:46:10.557Z,59.70
2018-04-22T20:48:38.711Z,60.30
2018-04-22T20:51:07.040Z,60.20
2018-04-22T20:53:35.472Z,60.10
2018-04-22T20:56:03.585Z,60.10
2018-04-22T20:58:31.803Z,60.00
2018-04-22T21:00:59.957Z,60.00
2018-04-22T21:03:28.248Z,59.90
2018-04-22T21:05:56.702Z,59.70
2018-04-22T21:08:24.991Z,60.10
2018-04-22T21:10:53.408Z,60.50
2018-04-22T21:13:21.749Z,60.10
2018-04-22T21:15:49.991Z,60.00
2018-04-22T21:18:18.655Z,60.60
2018-04-22T21:20:46.814Z,60.40
2018-04-22T21:23:15.148Z,60.50
2018-04-22T21:25:43.532Z,61.10
2018-04-22T21:28:12.537Z,61.00
2018-04-22T21:30:40.680Z,61.00
2018-04-22T21:33:11.808Z,61.10
2018-04-22T21:35:42.968Z,61.60
2018-04-22T21:38:16.387Z,62.00
2018-04-22T21:40:45.354Z,62.10
2018-04-22T21:43:14.225Z,62.10
2018-04-22T21:45:42.458Z,61.90
2018-04-22T21:48:10.693Z,61.40
2018-04-22T21:50:38.955Z,61.20
2018-04-22T21:53:07.889Z,61.40
2018-04-22T21:55:36.163Z,61.40
2018-04-22T21:58:05.131Z,60.70
2018-04-22T22:00:33.372Z,60.70
2018-04-22T22:03:01.503Z,60.60
2018-04-22T22:05:29.629Z,60.60
2018-04-22T22:07:57.816Z,60.70
2018-04-22T22:10:26.845Z,60.80
2018-04-22T22:12:55.062Z,60.90
2018-04-22T22:15:23.977Z,60.90
2018-04-22T22:17:52.187Z,60.90
2018-04-22T22:20:20.379Z,60.80
2018-04-22T22:22:48.633Z,60.60
2018-04-22T22:25:16.849Z,60.30
2018-04-22T22:27:45.096Z,61.10
2018-04-22T22:30:13.619Z,61.00
2018-04-22T22:32:41.760Z,60.60
2018-04-22T22:35:10.019Z,60.80
2018-04-22T22:37:38.246Z,60.70
2018-04-22T22:40:06.365Z,61.30
2018-04-22T22:42:35.252Z,60.60
2018-04-22T22:45:03.509Z,60.50
2018-04-22T22:47:31.653Z,60.50
2018-04-22T22:49:59.806Z,60.40
2018-04-22T22:52:27.950Z,61.10
2018-04-22T22:54:57.110Z,60.70
2018-04-22T22:57:26.172Z,60.80
2018-04-22T22:59:55.069Z,61.20
2018-04-22T23:02:23.272Z,61.20
2018-04-22T23:04:51.507Z,62.10
2018-04-22T23:07:19.591Z,61.30
2018-04-22T23:09:47.703Z,61.00
2018-04-22T23:12:16.555Z,61.60
2018-04-22T23:14:44.661Z,61.40
2018-04-22T23:17:12.903Z,61.90
2018-04-22T23:19:41.802Z,62.10
2018-04-22T23:22:09.932Z,62.00
2018-04-22T23:24:38.248Z,62.30
2018-04-22T23:27:06.367Z,62.30
2018-04-22T23:29:34.480Z,62.20
2018-04-22T23:32:02.604Z,62.20
2018-04-22T23:34:30.786Z,62.60
2018-04-22T23:36:59.732Z,62.70
2018-04-22T23:39:27.836Z,62.60
2018-04-22T23:41:55.968Z,62.70
2018-04-22T23:44:25.101Z,62.20
2018-04-22T23:46:53.275Z,62.10
2018-04-22T23:49:21.425Z,62.60
2018-04-22T23:51:49.598Z,62.70
2018-04-22T23:54:18.480Z,62.90
2018-04-22T23:56:47.152Z,63.00
2018-04-22T23:59:15.240Z,63.10
